Time;durP1;ratioP1;P1;durP2;ratioP2;P2;SDS_P1;SDS_P2;PMS_P1;PMS_P2;Temp;Humidity;BMP_temperature;BMP_pressure;BME280_temperature;BME280_humidity;BME280_pressure;Samples;Min_cycle;Max_cycle;Signal;HPM_P1;HPM_P2
2021/03/01 00:00:10;;;;;;;;;;;;;;;;;;5052696;28;19908;-62
2021/03/01 00:02:35;;;;;;;;;;;;;;;;;;5055574;28;20283;-62
2021/03/01 00:05:00;;;;;;;;;;;;;;;;;;5054552;28;19916;-62
2021/03/01 00:07:25;;;;;;;;;;;;;;;;;;5049311;28;20370;-62
2021/03/01 00:09:50;;;;;;;;;;;;;;;;;;5041181;28;20379;-62
2021/03/01 00:12:15;;;;;;;;;;;;;;;;;;5033248;28;20364;-62
2021/03/01 00:14:41;;;;;;;;;;;;;;;;;;5033096;28;19905;-62
2021/03/01 00:17:06;;;;;;;;;;;;;;;;;;5037479;28;19916;-62
2021/03/01 00:19:31;;;;;;;;;;;;;;;;;;5064362;28;19943;-61
2021/03/01 00:21:56;;;;;;;;;;;;;;;;;;5053263;28;19952;-61
2021/03/01 00:24:21;;;;;;;;;;;;;;;;;;5051648;28;19912;-61
2021/03/01 00:26:46;;;;;;;;;;;;;;;;;;5050082;28;19913;-62
2021/03/01 00:29:11;;;;;;;;;;;;;;;;;;5071890;28;19904;-62
2021/03/01 00:31:36;;;;;;;;;;;;;;;;;;5057775;28;20353;-62
2021/03/01 00:34:01;;;;;;;;;;;;;;;;;;5099496;28;20353;-61
2021/03/01 00:36:27;;;;;;;;;;;;;;;;;;5051661;28;20446;-62
2021/03/01 00:38:52;;;;;;;;;;;;;;;;;;5052795;28;19999;-62
2021/03/01 00:41:17;;;;;;;;;;;;;;;;;;5063735;28;19917;-62
2021/03/01 00:43:42;;;;;;;;;;;;;;;;;;5052980;28;19904;-61
2021/03/01 00:46:07;;;;;;;;;;;;;;;;;;5049892;28;20245;-62
2021/03/01 00:48:32;;;;;;;;;;;;;;;;;;5053770;28;19909;-62
2021/03/01 00:50:57;;;;;;;;;;;;;;;;;;5052646;28;20367;-62
2021/03/01 00:53:23;;;;;;;;;;;;;;;;;;5052507;28;19975;-62
2021/03/01 00:55:48;;;;;;;;;;;;;;;;;;5041873;28;19912;-62
2021/03/01 00:58:13;;;;;;;;;;;;;;;;;;5032555;28;19951;-61
2021/03/01 01:00:38;;;;;;;;;;;;;;;;;;5033883;28;19924;-61
2021/03/01 01:03:03;;;;;;;;;;;;;;;;;;5038221;28;19963;-62
2021/03/01 01:05:28;;;;;;;;;;;;;;;;;;5040618;28;19909;-62
2021/03/01 01:07:53;;;;;;;;;;;;;;;;;;5032754;28;19955;-62
2021/03/01 01:10:18;;;;;;;;;;;;;;;;;;5048424;28;19916;-62
2021/03/01 01:12:43;;;;;;;;;;;;;;;;;;5051603;28;19913;-62
2021/03/01 01:15:09;;;;;;;;;;;;;;;;;;5035038;28;19963;-63
2021/03/01 01:17:34;;;;;;;;;;;;;;;;;;5031204;28;19931;-62
2021/03/01 01:19:59;;;;;;;;;;;;;;;;;;5056929;28;19979;-62
2021/03/01 01:22:24;;;;;;;;;;;;;;;;;;5044732;28;19905;-62
2021/03/01 01:24:49;;;;;;;;;;;;;;;;;;5040476;28;19909;-62
2021/03/01 01:27:14;;;;;;;;;;;;;;;;;;5030399;28;19930;-62
2021/03/01 01:29:39;;;;;;;;;;;;;;;;;;5042052;28;19917;-62
2021/03/01 01:32:04;;;;;;;;;;;;;;;;;;5032463;28;19909;-62
2021/03/01 01:34:29;;;;;;;;;;;;;;;;;;5034184;28;19909;-61
2021/03/01 01:36:54;;;;;;;;;;;;;;;;;;5048691;28;19912;-61
2021/03/01 01:39:20;;;;;;;;;;;;;;;;;;5041429;28;19920;-61
2021/03/01 01:41:45;;;;;;;;;;;;;;;;;;5039572;28;19908;-61
2021/03/01 01:44:10;;;;;;;;;;;;;;;;;;5052087;28;19909;-61
2021/03/01 01:46:35;;;;;;;;;;;;;;;;;;5047688;28;19916;-59
2021/03/01 01:49:00;;;;;;;;;;;;;;;;;;5039287;28;19963;-57
2021/03/01 01:51:25;;;;;;;;;;;;;;;;;;5039018;28;19909;-61
2021/03/01 01:53:50;;;;;;;;;;;;;;;;;;5038456;28;19904;-61
2021/03/01 01:56:15;;;;;;;;;;;;;;;;;;5037381;28;19905;-62
2021/03/01 01:58:40;;;;;;;;;;;;;;;;;;5035321;28;19915;-61
2021/03/01 02:01:06;;;;;;;;;;;;;;;;;;5043110;28;20329;-61
2021/03/01 02:03:31;;;;;;;;;;;;;;;;;;5045393;28;19909;-61
2021/03/01 02:05:56;;;;;;;;;;;;;;;;;;5048223;28;19915;-62
2021/03/01 02:08:21;;;;;;;;;;;;;;;;;;5052077;28;20418;-62
2021/03/01 02:10:46;;;;;;;;;;;;;;;;;;5055265;28;20360;-62
2021/03/01 02:13:11;;;;;;;;;;;;;;;;;;5051035;28;20422;-62
2021/03/01 02:15:36;;;;;;;;;;;;;;;;;;5042693;28;19935;-62
2021/03/01 02:18:01;;;;;;;;;;;;;;;;;;5046694;28;19911;-61
2021/03/01 02:20:26;;;;;;;;;;;;;;;;;;5053921;28;20007;-62
2021/03/01 02:22:51;;;;;;;;;;;;;;;;;;5055162;28;20000;-62
2021/03/01 02:25:17;;;;;;;;;;;;;;;;;;5051840;28;20007;-62
2021/03/01 02:27:42;;;;;;;;;;;;;;;;;;5054883;28;19911;-61
2021/03/01 02:30:07;;;;;;;;;;;;;;;;;;5037560;28;20367;-62
2021/03/01 02:32:33;;;;;;;;;;;;;;;;;;5056431;28;20398;-61
2021/03/01 02:34:58;;;;;;;;;;;;;;;;;;5050449;28;19920;-61
2021/03/01 02:37:24;;;;;;;;;;;;;;;;;;5048659;28;19984;-61
2021/03/01 02:39:49;;;;;;;;;;;;;;;;;;5058483;28;19977;-62
2021/03/01 02:42:14;;;;;;;;;;;;;;;;;;5059352;28;19998;-61
2021/03/01 02:44:39;;;;;;;;;;;;;;;;;;5051004;28;19995;-61
2021/03/01 02:47:04;;;;;;;;;;;;;;;;;;5037297;28;19928;-63
2021/03/01 02:49:29;;;;;;;;;;;;;;;;;;5046830;28;19909;-64
2021/03/01 02:51:54;;;;;;;;;;;;;;;;;;5035014;28;19909;-64
2021/03/01 02:54:19;;;;;;;;;;;;;;;;;;5045694;28;19940;-64
2021/03/01 02:56:45;;;;;;;;;;;;;;;;;;5051630;28;19908;-61
2021/03/01 02:59:10;;;;;;;;;;;;;;;;;;5041737;28;19909;-62
2021/03/01 03:01:35;;;;;;;;;;;;;;;;;;5048004;28;19919;-61
2021/03/01 03:04:00;;;;;;;;;;;;;;;;;;5052279;28;19991;-60
2021/03/01 03:06:25;;;;;;;;;;;;;;;;;;5047371;28;20354;-61
2021/03/01 03:08:50;;;;;;;;;;;;;;;;;;5037051;28;19963;-63
2021/03/01 03:11:15;;;;;;;;;;;;;;;;;;5053539;28;19904;-62
2021/03/01 03:13:40;;;;;;;;;;;;;;;;;;5042665;28;19913;-63
2021/03/01 03:16:05;;;;;;;;;;;;;;;;;;5046697;28;19905;-62
2021/03/01 03:18:31;;;;;;;;;;;;;;;;;;5034313;28;19913;-60
2021/03/01 03:20:56;;;;;;;;;;;;;;;;;;5051226;28;19912;-62
2021/03/01 03:23:21;;;;;;;;;;;;;;;;;;5053958;28;19928;-63
2021/03/01 03:25:46;;;;;;;;;;;;;;;;;;5051163;28;20359;-62
2021/03/01 03:28:11;;;;;;;;;;;;;;;;;;5049436;28;19908;-63
2021/03/01 03:30:36;;;;;;;;;;;;;;;;;;5052500;28;20272;-62
2021/03/01 03:33:01;;;;;;;;;;;;;;;;;;5048720;28;20405;-61
2021/03/01 03:35:26;;;;;;;;;;;;;;;;;;5039707;28;20455;-62
2021/03/01 03:37:51;;;;;;;;;;;;;;;;;;5052964;28;20367;-62
2021/03/01 03:40:17;;;;;;;;;;;;;;;;;;5061477;28;20286;-62
2021/03/01 03:42:42;;;;;;;;;;;;;;;;;;5100817;28;19908;-61
2021/03/01 03:45:07;;;;;;;;;;;;;;;;;;5037894;28;20351;-62
2021/03/01 03:47:32;;;;;;;;;;;;;;;;;;5051789;28;19905;-62
2021/03/01 03:49:57;;;;;;;;;;;;;;;;;;5040374;28;19911;-62
2021/03/01 03:52:22;;;;;;;;;;;;;;;;;;5045721;28;19912;-62
2021/03/01 03:54:47;;;;;;;;;;;;;;;;;;5053419;28;19974;-61
2021/03/01 03:57:12;;;;;;;;;;;;;;;;;;5050657;28;20018;-60
2021/03/01 03:59:37;;;;;;;;;;;;;;;;;;5049120;28;19967;-62
2021/03/01 04:02:03;;;;;;;;;;;;;;;;;;5023921;28;20449;-61
2021/03/01 04:04:28;;;;;;;;;;;;;;;;;;5014636;28;19905;-61
2021/03/01 04:06:53;;;;;;;;;;;;;;;;;;5030350;28;20371;-61
2021/03/01 04:09:18;;;;;;;;;;;;;;;;;;5031862;28;19961;-61
2021/03/01 04:11:43;;;;;;;;;;;;;;;;;;5033404;28;19959;-62
2021/03/01 04:14:08;;;;;;;;;;;;;;;;;;5032761;28;20315;-61
2021/03/01 04:16:33;;;;;;;;;;;;;;;;;;5029884;28;19909;-61
2021/03/01 04:18:58;;;;;;;;;;;;;;;;;;5031317;28;19905;-62
2021/03/01 04:21:24;;;;;;;;;;;;;;;;;;5033205;28;19939;-62
2021/03/01 04:23:49;;;;;;;;;;;;;;;;;;5033135;28;19982;-61
2021/03/01 04:26:14;;;;;;;;;;;;;;;;;;5028922;28;19999;-62
2021/03/01 04:28:39;;;;;;;;;;;;;;;;;;5024189;28;20283;-61
2021/03/01 04:31:04;;;;;;;;;;;;;;;;;;5016111;28;19943;-62
2021/03/01 04:33:29;;;;;;;;;;;;;;;;;;5018207;28;19953;-62
2021/03/01 04:35:54;;;;;;;;;;;;;;;;;;5016845;28;19932;-62
2021/03/01 04:38:19;;;;;;;;;;;;;;;;;;5013019;28;19910;-62
2021/03/01 04:40:44;;;;;;;;;;;;;;;;;;5054435;28;19913;-62
2021/03/01 04:43:10;;;;;;;;;;;;;;;;;;5025289;28;19909;-62
2021/03/01 04:45:35;;;;;;;;;;;;;;;;;;5030080;28;19916;-63
2021/03/01 04:48:00;;;;;;;;;;;;;;;;;;5032753;28;20363;-61
2021/03/01 04:50:25;;;;;;;;;;;;;;;;;;5028969;28;20364;-62
2021/03/01 04:52:50;;;;;;;;;;;;;;;;;;5039421;28;20363;-62
2021/03/01 04:55:16;;;;;;;;;;;;;;;;;;5050724;28;20423;-64
2021/03/01 04:57:41;;;;;;;;;;;;;;;;;;5050761;28;19995;-62
2021/03/01 05:00:06;;;;;;;;;;;;;;;;;;5039281;28;20070;-62
2021/03/01 05:02:31;;;;;;;;;;;;;;;;;;5032597;28;19913;-62
2021/03/01 05:04:56;;;;;;;;;;;;;;;;;;5019911;28;19913;-61
2021/03/01 05:07:21;;;;;;;;;;;;;;;;;;5028953;28;19916;-62
2021/03/01 05:09:46;;;;;;;;;;;;;;;;;;5030574;28;19931;-62
2021/03/01 05:12:11;;;;;;;;;;;;;;;;;;5032279;28;19912;-62
2021/03/01 05:14:37;;;;;;;;;;;;;;;;;;5032297;28;19913;-62
2021/03/01 05:17:02;;;;;;;;;;;;;;;;;;5029383;28;19909;-61
2021/03/01 05:19:27;;;;;;;;;;;;;;;;;;5027022;28;19921;-62
2021/03/01 05:21:52;;;;;;;;;;;;;;;;;;5030329;28;19917;-62
2021/03/01 05:24:17;;;;;;;;;;;;;;;;;;5029580;28;19916;-63
2021/03/01 05:26:42;;;;;;;;;;;;;;;;;;5024688;28;19914;-62
2021/03/01 05:29:08;;;;;;;;;;;;;;;;;;5015894;28;20615;-61
2021/03/01 05:31:33;;;;;;;;;;;;;;;;;;5017356;28;19959;-62
2021/03/01 05:33:58;;;;;;;;;;;;;;;;;;5017660;28;19971;-62
2021/03/01 05:36:23;;;;;;;;;;;;;;;;;;5029372;28;19956;-61
2021/03/01 05:38:48;;;;;;;;;;;;;;;;;;5015882;28;19959;-62
2021/03/01 05:41:13;;;;;;;;;;;;;;;;;;5026272;28;19913;-62
2021/03/01 05:43:38;;;;;;;;;;;;;;;;;;5032581;28;19920;-62
2021/03/01 05:46:03;;;;;;;;;;;;;;;;;;5031291;28;19924;-62
2021/03/01 05:48:29;;;;;;;;;;;;;;;;;;5033445;28;20280;-62
2021/03/01 05:50:54;;;;;;;;;;;;;;;;;;5029024;28;19920;-61
2021/03/01 05:53:19;;;;;;;;;;;;;;;;;;5035563;28;19932;-62
2021/03/01 05:55:44;;;;;;;;;;;;;;;;;;5032745;28;19959;-62
2021/03/01 05:58:09;;;;;;;;;;;;;;;;;;5019580;28;19905;-62
2021/03/01 06:00:34;;;;;;;;;;;;;;;;;;5020627;28;20264;-62
2021/03/01 06:02:59;;;;;;;;;;;;;;;;;;5033731;28;20280;-63
2021/03/01 06:05:24;;;;;;;;;;;;;;;;;;5032678;28;20384;-63
2021/03/01 06:07:49;;;;;;;;;;;;;;;;;;5029244;28;19912;-62
2021/03/01 06:10:15;;;;;;;;;;;;;;;;;;5035263;28;19988;-62
2021/03/01 06:12:40;;;;;;;;;;;;;;;;;;5016561;28;20047;-62
2021/03/01 06:15:05;;;;;;;;;;;;;;;;;;5045970;28;19989;-62
2021/03/01 06:17:30;;;;;;;;;;;;;;;;;;5021181;28;20335;-62
2021/03/01 06:19:55;;;;;;;;;;;;;;;;;;5029390;28;19917;-63
2021/03/01 06:22:20;;;;;;;;;;;;;;;;;;5019496;28;19963;-63
2021/03/01 06:24:45;;;;;;;;;;;;;;;;;;5031328;28;19909;-63
2021/03/01 06:27:11;;;;;;;;;;;;;;;;;;5021617;28;19916;-62
2021/03/01 06:29:36;;;;;;;;;;;;;;;;;;5029707;28;19921;-64
2021/03/01 06:32:01;;;;;;;;;;;;;;;;;;5024324;28;20050;-62
2021/03/01 06:34:26;;;;;;;;;;;;;;;;;;5029906;28;19909;-62
2021/03/01 06:36:51;;;;;;;;;;;;;;;;;;5029061;28;19913;-62
2021/03/01 06:39:16;;;;;;;;;;;;;;;;;;5020387;28;19914;-62
2021/03/01 06:41:41;;;;;;;;;;;;;;;;;;5034135;28;19913;-61
2021/03/01 06:44:06;;;;;;;;;;;;;;;;;;5024534;28;19916;-63
2021/03/01 06:46:33;;;;;;;;;;;;;;;;;;5060692;28;19931;-62
2021/03/01 06:48:58;;;;;;;;;;;;;;;;;;5033960;28;19911;-62
2021/03/01 06:51:23;;;;;;;;;;;;;;;;;;5030998;28;19909;-62
2021/03/01 06:53:48;;;;;;;;;;;;;;;;;;5022215;28;19913;-61
2021/03/01 06:56:14;;;;;;;;;;;;;;;;;;5022377;28;19916;-62
2021/03/01 06:58:39;;;;;;;;;;;;;;;;;;5021541;28;19909;-61
2021/03/01 07:01:04;;;;;;;;;;;;;;;;;;5022606;28;19913;-61
2021/03/01 07:03:29;;;;;;;;;;;;;;;;;;5027153;28;20271;-63
2021/03/01 07:05:54;;;;;;;;;;;;;;;;;;5024030;28;19909;-63
2021/03/01 07:08:19;;;;;;;;;;;;;;;;;;5029352;28;19910;-63
2021/03/01 07:10:44;;;;;;;;;;;;;;;;;;5052000;28;19996;-63
2021/03/01 07:13:09;;;;;;;;;;;;;;;;;;5020734;28;20073;-63
2021/03/01 07:15:35;;;;;;;;;;;;;;;;;;5011741;28;20423;-62
2021/03/01 07:18:00;;;;;;;;;;;;;;;;;;5017814;28;19959;-62
2021/03/01 07:20:25;;;;;;;;;;;;;;;;;;5033798;28;20384;-63
2021/03/01 07:22:50;;;;;;;;;;;;;;;;;;5016402;28;20028;-63
2021/03/01 07:25:15;;;;;;;;;;;;;;;;;;5012935;28;20371;-63
2021/03/01 07:27:40;;;;;;;;;;;;;;;;;;5020117;28;20437;-63
2021/03/01 07:30:05;;;;;;;;;;;;;;;;;;5019580;28;19957;-63
2021/03/01 07:32:30;;;;;;;;;;;;;;;;;;5014385;28;19906;-62
2021/03/01 07:34:55;;;;;;;;;;;;;;;;;;5019382;28;19913;-64
2021/03/01 07:37:21;;;;;;;;;;;;;;;;;;5030824;28;19916;-63
2021/03/01 07:39:46;;;;;;;;;;;;;;;;;;5038182;28;20003;-63
2021/03/01 07:42:11;;;;;;;;;;;;;;;;;;5048750;28;20943;-63
2021/03/01 07:44:36;;;;;;;;;;;;;;;;;;5017943;28;19905;-62
2021/03/01 07:47:01;;;;;;;;;;;;;;;;;;5030329;28;19916;-63
2021/03/01 07:49:26;;;;;;;;;;;;;;;;;;5025709;28;19905;-64
2021/03/01 07:51:51;;;;;;;;;;;;;;;;;;5033216;28;19904;-63
2021/03/01 07:54:17;;;;;;;;;;;;;;;;;;5032452;28;19918;-63
2021/03/01 07:56:42;;;;;;;;;;;;;;;;;;5030433;28;19905;-64
2021/03/01 07:59:07;;;;;;;;;;;;;;;;;;5031287;28;19905;-64
2021/03/01 08:01:32;;;;;;;;;;;;;;;;;;5014048;28;19917;-63
2021/03/01 08:03:57;;;;;;;;;;;;;;;;;;5015927;28;19916;-63
2021/03/01 08:06:22;;;;;;;;;;;;;;;;;;5026835;28;19909;-63
2021/03/01 08:08:50;;;;;;;;;;;;;;;;;;5030260;28;19916;-63
2021/03/01 08:11:15;;;;;;;;;;;;;;;;;;5034858;28;19951;-63
2021/03/01 08:13:40;;;;;;;;;;;;;;;;;;5040973;28;19952;-63
2021/03/01 08:16:06;;;;;;;;;;;;;;;;;;5046625;28;19951;-63
2021/03/01 08:18:31;;;;;;;;;;;;;;;;;;5028907;28;19968;-63
2021/03/01 08:20:56;;;;;;;;;;;;;;;;;;5013322;28;20012;-63
2021/03/01 08:23:21;;;;;;;;;;;;;;;;;;5026368;28;20422;-63
2021/03/01 08:25:56;;;;;;;;;;;;;;;;;;5013013;28;19909;-63
2021/03/01 08:28:21;;;;;;;;;;;;;;;;;;5014918;28;19932;-63
2021/03/01 08:30:46;;;;;;;;;;;;;;;;;;5032696;28;19917;-63
2021/03/01 08:33:11;;;;;;;;;;;;;;;;;;5030044;28;19917;-63
2021/03/01 08:35:36;;;;;;;;;;;;;;;;;;5034232;28;20506;-63
2021/03/01 08:38:01;;;;;;;;;;;;;;;;;;5027084;28;20288;-62
2021/03/01 08:40:26;;;;;;;;;;;;;;;;;;5037725;28;20275;-63
2021/03/01 08:42:52;;;;;;;;;;;;;;;;;;5032893;28;20240;-62
2021/03/01 08:45:17;;;;;;;;;;;;;;;;;;5024783;28;20340;-63
2021/03/01 08:47:42;;;;;;;;;;;;;;;;;;5038352;28;19908;-63
2021/03/01 08:50:07;;;;;;;;;;;;;;;;;;5049194;28;19905;-63
2021/03/01 08:52:32;;;;;;;;;;;;;;;;;;5039222;28;19996;-61
2021/03/01 08:54:57;;;;;;;;;;;;;;;;;;5025819;28;20004;-63
2021/03/01 08:57:22;;;;;;;;;;;;;;;;;;5029763;28;20008;-67
2021/03/01 08:59:47;;;;;;;;;;;;;;;;;;5027778;28;19999;-62
2021/03/01 09:02:12;;;;;;;;;;;;;;;;;;5015688;28;20268;-63
2021/03/01 09:04:38;;;;;;;;;;;;;;;;;;5029097;28;20016;-62
2021/03/01 09:07:03;;;;;;;;;;;;;;;;;;5032647;28;19936;-63
2021/03/01 09:09:28;;;;;;;;;;;;;;;;;;5016767;28;19909;-63
2021/03/01 09:11:53;;;;;;;;;;;;;;;;;;5016736;28;19906;-63
2021/03/01 09:14:18;;;;;;;;;;;;;;;;;;5018337;28;19909;-63
2021/03/01 09:16:43;;;;;;;;;;;;;;;;;;5013856;28;19909;-63
2021/03/01 09:19:09;;;;;;;;;;;;;;;;;;5023065;28;20261;-63
2021/03/01 09:21:34;;;;;;;;;;;;;;;;;;5032747;28;19925;-63
2021/03/01 09:23:59;;;;;;;;;;;;;;;;;;5027964;28;20356;-62
2021/03/01 09:26:25;;;;;;;;;;;;;;;;;;5020659;28;19988;-63
2021/03/01 09:28:50;;;;;;;;;;;;;;;;;;5034542;28;20012;-63
2021/03/01 09:31:15;;;;;;;;;;;;;;;;;;5035925;28;19917;-63
2021/03/01 09:33:40;;;;;;;;;;;;;;;;;;5027191;28;20494;-64
2021/03/01 09:36:05;;;;;;;;;;;;;;;;;;5025409;28;19916;-63
2021/03/01 09:38:30;;;;;;;;;;;;;;;;;;5041007;28;20000;-63
2021/03/01 09:40:56;;;;;;;;;;;;;;;;;;5033076;28;19920;-63
2021/03/01 09:43:23;;;;;;;;;;;;;;;;;;5028497;28;19909;-63
2021/03/01 09:45:48;;;;;;;;;;;;;;;;;;5032637;28;20414;-62
2021/03/01 09:48:13;;;;;;;;;;;;;;;;;;5020825;28;20300;-61
2021/03/01 09:50:38;;;;;;;;;;;;;;;;;;5035573;28;20386;-62
2021/03/01 09:53:03;;;;;;;;;;;;;;;;;;5035504;28;19936;-62
2021/03/01 09:55:28;;;;;;;;;;;;;;;;;;5034006;28;20384;-62
2021/03/01 09:57:53;;;;;;;;;;;;;;;;;;5022667;28;19916;-62
2021/03/01 10:00:18;;;;;;;;;;;;;;;;;;5035181;28;20016;-61
2021/03/01 10:02:43;;;;;;;;;;;;;;;;;;5040414;28;19952;-62
2021/03/01 10:05:09;;;;;;;;;;;;;;;;;;5027254;28;19963;-62
2021/03/01 10:07:34;;;;;;;;;;;;;;;;;;5023462;28;20016;-62
2021/03/01 10:09:59;;;;;;;;;;;;;;;;;;5023877;28;19940;-62
2021/03/01 10:12:24;;;;;;;;;;;;;;;;;;5023844;28;19955;-62
2021/03/01 10:14:49;;;;;;;;;;;;;;;;;;5033567;28;19913;-63
2021/03/01 10:17:15;;;;;;;;;;;;;;;;;;5033028;28;20348;-62
2021/03/01 10:19:40;;;;;;;;;;;;;;;;;;5017411;28;20004;-62
2021/03/01 10:22:05;;;;;;;;;;;;;;;;;;5029004;28;19913;-62
2021/03/01 10:24:30;;;;;;;;;;;;;;;;;;5027855;28;20335;-62
2021/03/01 10:26:55;;;;;;;;;;;;;;;;;;5012762;28;20325;-63
2021/03/01 10:29:20;;;;;;;;;;;;;;;;;;5014755;28;20008;-63
2021/03/01 10:31:45;;;;;;;;;;;;;;;;;;5030098;28;19908;-63
2021/03/01 10:34:11;;;;;;;;;;;;;;;;;;5037601;28;20340;-62
2021/03/01 10:36:36;;;;;;;;;;;;;;;;;;5031888;28;19955;-62
2021/03/01 10:39:01;;;;;;;;;;;;;;;;;;5034548;28;20410;-62
2021/03/01 10:41:26;;;;;;;;;;;;;;;;;;5037803;28;19920;-63
2021/03/01 10:43:52;;;;;;;;;;;;;;;;;;5031731;28;19925;-63
2021/03/01 10:46:17;;;;;;;;;;;;;;;;;;5020948;28;19910;-62
2021/03/01 10:48:42;;;;;;;;;;;;;;;;;;5029135;28;19916;-62
2021/03/01 10:51:07;;;;;;;;;;;;;;;;;;5024720;28;19908;-63
2021/03/01 10:53:32;;;;;;;;;;;;;;;;;;5034444;28;19928;-62
2021/03/01 10:55:57;;;;;;;;;;;;;;;;;;5012279;28;19909;-62
2021/03/01 10:58:22;;;;;;;;;;;;;;;;;;5015401;28;19964;-63
2021/03/01 11:00:47;;;;;;;;;;;;;;;;;;5016195;28;19948;-61
2021/03/01 11:03:12;;;;;;;;;;;;;;;;;;5032492;28;19909;-62
2021/03/01 11:05:43;;;;;;;;;;;;;;;;;;5030547;28;20213;-62
2021/03/01 11:08:08;;;;;;;;;;;;;;;;;;5028213;28;19920;-63
2021/03/01 11:10:33;;;;;;;;;;;;;;;;;;5014571;28;19905;-63
2021/03/01 11:12:58;;;;;;;;;;;;;;;;;;5031338;28;19913;-63
2021/03/01 11:15:23;;;;;;;;;;;;;;;;;;5063248;28;19905;-62
2021/03/01 11:17:48;;;;;;;;;;;;;;;;;;5033204;28;19919;-63
2021/03/01 11:20:13;;;;;;;;;;;;;;;;;;5033754;28;19905;-63
2021/03/01 11:22:38;;;;;;;;;;;;;;;;;;5033303;28;20019;-63
2021/03/01 11:25:03;;;;;;;;;;;;;;;;;;5032227;28;19952;-63
2021/03/01 11:27:29;;;;;;;;;;;;;;;;;;5028946;28;19909;-62
2021/03/01 11:29:54;;;;;;;;;;;;;;;;;;5033018;28;19917;-63
2021/03/01 11:32:19;;;;;;;;;;;;;;;;;;5032059;28;19912;-63
2021/03/01 11:34:44;;;;;;;;;;;;;;;;;;5030364;28;19909;-63
2021/03/01 11:37:09;;;;;;;;;;;;;;;;;;5019833;28;19917;-63
2021/03/01 11:39:34;;;;;;;;;;;;;;;;;;5030977;28;19908;-63
2021/03/01 11:41:59;;;;;;;;;;;;;;;;;;5027802;28;19913;-63
2021/03/01 11:44:24;;;;;;;;;;;;;;;;;;5030325;28;19909;-62
2021/03/01 11:46:49;;;;;;;;;;;;;;;;;;5028854;28;20428;-62
2021/03/01 11:49:14;;;;;;;;;;;;;;;;;;5028687;28;20335;-62
2021/03/01 11:51:40;;;;;;;;;;;;;;;;;;5033492;28;19904;-63
2021/03/01 11:54:05;;;;;;;;;;;;;;;;;;5033323;28;19905;-63
2021/03/01 11:56:30;;;;;;;;;;;;;;;;;;5025345;28;20383;-64
2021/03/01 11:58:57;;;;;;;;;;;;;;;;;;5028103;28;19909;-63
2021/03/01 12:01:22;;;;;;;;;;;;;;;;;;5013492;28;20004;-63
2021/03/01 12:03:47;;;;;;;;;;;;;;;;;;5013962;28;19995;-63
2021/03/01 12:06:12;;;;;;;;;;;;;;;;;;5012809;28;19992;-63
2021/03/01 12:08:37;;;;;;;;;;;;;;;;;;5013309;28;20013;-62
2021/03/01 12:11:03;;;;;;;;;;;;;;;;;;5013708;28;19949;-62
2021/03/01 12:13:28;;;;;;;;;;;;;;;;;;5021871;28;20366;-63
2021/03/01 12:15:53;;;;;;;;;;;;;;;;;;5048354;28;20304;-62
2021/03/01 12:18:18;;;;;;;;;;;;;;;;;;5027658;28;20023;-63
2021/03/01 12:20:43;;;;;;;;;;;;;;;;;;5037782;28;20000;-63
2021/03/01 12:23:08;;;;;;;;;;;;;;;;;;5020518;28;19996;-63
2021/03/01 12:25:33;;;;;;;;;;;;;;;;;;5024197;28;19979;-61
2021/03/01 12:27:58;;;;;;;;;;;;;;;;;;5032893;28;19947;-63
2021/03/01 12:30:23;;;;;;;;;;;;;;;;;;5037908;28;19924;-62
2021/03/01 12:32:49;;;;;;;;;;;;;;;;;;5049729;28;19919;-63
2021/03/01 12:35:14;;;;;;;;;;;;;;;;;;5034457;28;19915;-62
2021/03/01 12:37:39;;;;;;;;;;;;;;;;;;5045923;28;19920;-62
2021/03/01 12:40:04;;;;;;;;;;;;;;;;;;5035200;28;19909;-62
2021/03/01 12:42:29;;;;;;;;;;;;;;;;;;5031705;28;19909;-63
2021/03/01 12:44:54;;;;;;;;;;;;;;;;;;5029095;28;20299;-62
2021/03/01 12:47:19;;;;;;;;;;;;;;;;;;5042289;28;20549;-63
2021/03/01 12:49:44;;;;;;;;;;;;;;;;;;5039846;28;19908;-62
2021/03/01 12:52:09;;;;;;;;;;;;;;;;;;5045753;28;19916;-63
2021/03/01 12:54:35;;;;;;;;;;;;;;;;;;5038858;28;19962;-63
2021/03/01 12:57:00;;;;;;;;;;;;;;;;;;5030657;28;19905;-63
2021/03/01 12:59:25;;;;;;;;;;;;;;;;;;5031024;28;19935;-64
2021/03/01 13:01:50;;;;;;;;;;;;;;;;;;5029174;28;19920;-63
2021/03/01 13:04:15;;;;;;;;;;;;;;;;;;5030023;28;19917;-62
2021/03/01 13:06:40;;;;;;;;;;;;;;;;;;5013256;28;19915;-64
2021/03/01 13:09:05;;;;;;;;;;;;;;;;;;5026956;28;19924;-62
2021/03/01 13:11:31;;;;;;;;;;;;;;;;;;5023684;28;20000;-62
2021/03/01 13:13:56;;;;;;;;;;;;;;;;;;5016972;28;19913;-62
2021/03/01 13:16:21;;;;;;;;;;;;;;;;;;5016450;28;19959;-62
2021/03/01 13:18:46;;;;;;;;;;;;;;;;;;5021359;28;19908;-63
2021/03/01 13:21:11;;;;;;;;;;;;;;;;;;5029364;28;19913;-62
2021/03/01 13:23:36;;;;;;;;;;;;;;;;;;5030534;28;19912;-63
2021/03/01 13:26:01;;;;;;;;;;;;;;;;;;5019947;28;19913;-62
2021/03/01 13:28:26;;;;;;;;;;;;;;;;;;5014087;28;20003;-64
2021/03/01 13:30:52;;;;;;;;;;;;;;;;;;5012362;28;20008;-63
2021/03/01 13:33:17;;;;;;;;;;;;;;;;;;5020062;28;19909;-63
2021/03/01 13:35:42;;;;;;;;;;;;;;;;;;5049573;28;19916;-63
2021/03/01 13:38:07;;;;;;;;;;;;;;;;;;5045615;28;19908;-63
2021/03/01 13:40:32;;;;;;;;;;;;;;;;;;5035589;28;19908;-62
2021/03/01 13:42:57;;;;;;;;;;;;;;;;;;5031145;28;19925;-59
2021/03/01 13:45:23;;;;;;;;;;;;;;;;;;5045269;28;19913;-65
2021/03/01 13:47:48;;;;;;;;;;;;;;;;;;5045885;28;19913;-64
2021/03/01 13:50:13;;;;;;;;;;;;;;;;;;5049944;28;20272;-63
2021/03/01 13:52:38;;;;;;;;;;;;;;;;;;5042540;28;20436;-63
2021/03/01 13:55:03;;;;;;;;;;;;;;;;;;5036581;28;19908;-63
2021/03/01 13:57:28;;;;;;;;;;;;;;;;;;5013961;28;19913;-63
2021/03/01 13:59:53;;;;;;;;;;;;;;;;;;5021161;28;19916;-63
2021/03/01 14:02:20;;;;;;;;;;;;;;;;;;5016064;28;19913;-63
2021/03/01 14:04:45;;;;;;;;;;;;;;;;;;5020923;28;20330;-63
2021/03/01 14:07:10;;;;;;;;;;;;;;;;;;5030860;28;19928;-63
2021/03/01 14:09:35;;;;;;;;;;;;;;;;;;5018557;28;19971;-63
2021/03/01 14:12:00;;;;;;;;;;;;;;;;;;5021894;28;19912;-63
2021/03/01 14:14:25;;;;;;;;;;;;;;;;;;5016063;28;19927;-63
2021/03/01 14:16:50;;;;;;;;;;;;;;;;;;5013390;28;20004;-64
2021/03/01 14:19:15;;;;;;;;;;;;;;;;;;5026460;28;19909;-63
2021/03/01 14:21:40;;;;;;;;;;;;;;;;;;5035438;28;19909;-64
2021/03/01 14:24:06;;;;;;;;;;;;;;;;;;5035186;28;19905;-63
2021/03/01 14:26:31;;;;;;;;;;;;;;;;;;5032482;28;19928;-63
2021/03/01 14:28:56;;;;;;;;;;;;;;;;;;5031127;28;19913;-64
2021/03/01 14:31:21;;;;;;;;;;;;;;;;;;5043426;28;19920;-64
2021/03/01 14:33:46;;;;;;;;;;;;;;;;;;5036656;28;20272;-64
2021/03/01 14:36:11;;;;;;;;;;;;;;;;;;5032148;28;19928;-64
2021/03/01 14:38:36;;;;;;;;;;;;;;;;;;5034672;28;19905;-63
2021/03/01 14:41:02;;;;;;;;;;;;;;;;;;5034465;28;19959;-63
2021/03/01 14:43:27;;;;;;;;;;;;;;;;;;5034408;28;19911;-64
2021/03/01 14:45:52;;;;;;;;;;;;;;;;;;5030776;28;19913;-63
2021/03/01 14:48:17;;;;;;;;;;;;;;;;;;5015030;28;19905;-63
2021/03/01 14:50:42;;;;;;;;;;;;;;;;;;5023167;28;19911;-63
2021/03/01 14:53:07;;;;;;;;;;;;;;;;;;5029628;28;19909;-62
2021/03/01 14:55:32;;;;;;;;;;;;;;;;;;5031691;28;19935;-63
2021/03/01 14:57:57;;;;;;;;;;;;;;;;;;5030165;28;19913;-64
2021/03/01 15:00:23;;;;;;;;;;;;;;;;;;5031716;28;20287;-63
2021/03/01 15:02:48;;;;;;;;;;;;;;;;;;5030459;28;19924;-62
2021/03/01 15:05:13;;;;;;;;;;;;;;;;;;5031948;28;19905;-64
2021/03/01 15:07:38;;;;;;;;;;;;;;;;;;5032969;28;19913;-63
2021/03/01 15:10:03;;;;;;;;;;;;;;;;;;5036376;28;19904;-63
2021/03/01 15:12:28;;;;;;;;;;;;;;;;;;5033877;28;19932;-62
2021/03/01 15:14:54;;;;;;;;;;;;;;;;;;5028282;28;20280;-63
2021/03/01 15:17:19;;;;;;;;;;;;;;;;;;5031982;28;20366;-64
2021/03/01 15:19:44;;;;;;;;;;;;;;;;;;5045719;28;19908;-62
2021/03/01 15:22:09;;;;;;;;;;;;;;;;;;5053922;28;20286;-62
2021/03/01 15:24:34;;;;;;;;;;;;;;;;;;5053268;28;20016;-63
2021/03/01 15:26:59;;;;;;;;;;;;;;;;;;5034472;28;19917;-62
2021/03/01 15:29:24;;;;;;;;;;;;;;;;;;5053373;28;19967;-63
2021/03/01 15:31:49;;;;;;;;;;;;;;;;;;5052518;28;19966;-62
2021/03/01 15:34:14;;;;;;;;;;;;;;;;;;5044384;28;19908;-62
2021/03/01 15:36:40;;;;;;;;;;;;;;;;;;5048730;28;19908;-62
2021/03/01 15:39:05;;;;;;;;;;;;;;;;;;5040478;28;19912;-62
2021/03/01 15:41:30;;;;;;;;;;;;;;;;;;5036028;28;19921;-59
2021/03/01 15:43:55;;;;;;;;;;;;;;;;;;5033866;28;19991;-62
2021/03/01 15:46:20;;;;;;;;;;;;;;;;;;5030167;28;20386;-62
2021/03/01 15:48:45;;;;;;;;;;;;;;;;;;5040224;28;19913;-62
2021/03/01 15:51:10;;;;;;;;;;;;;;;;;;5022890;28;19916;-62
2021/03/01 15:53:35;;;;;;;;;;;;;;;;;;5024715;28;19964;-61
2021/03/01 15:56:00;;;;;;;;;;;;;;;;;;5030477;28;19949;-62
2021/03/01 15:58:26;;;;;;;;;;;;;;;;;;5030216;28;20006;-63
2021/03/01 16:00:51;;;;;;;;;;;;;;;;;;5042841;28;19960;-62
2021/03/01 16:03:16;;;;;;;;;;;;;;;;;;5034923;28;19960;-62
2021/03/01 16:05:41;;;;;;;;;;;;;;;;;;5010848;28;20020;-62
2021/03/01 16:08:06;;;;;;;;;;;;;;;;;;5035920;28;19995;-61
2021/03/01 16:10:31;;;;;;;;;;;;;;;;;;5036603;28;20278;-62
2021/03/01 16:12:56;;;;;;;;;;;;;;;;;;5043306;28;20319;-61
2021/03/01 16:15:21;;;;;;;;;;;;;;;;;;5034777;28;20475;-62
2021/03/01 16:17:49;;;;;;;;;;;;;;;;;;5025543;28;20006;-62
2021/03/01 16:20:14;;;;;;;;;;;;;;;;;;5014095;28;19905;-63
2021/03/01 16:22:39;;;;;;;;;;;;;;;;;;5037937;28;20004;-63
2021/03/01 16:25:04;;;;;;;;;;;;;;;;;;5021452;28;20000;-64
2021/03/01 16:27:29;;;;;;;;;;;;;;;;;;5016463;28;19910;-64
2021/03/01 16:29:54;;;;;;;;;;;;;;;;;;5012439;28;19972;-62